sensor_id;sensor_type;location;lat;lon;timestamp;pressure;altitude;pressure_sealevel;temperature;humidity
30110;BME280;14965;50.660;13.226;2024-01-07T00:01:28;94355.81;;;-2.67;100.00
30110;BME280;14965;50.660;13.226;2024-01-07T00:03:54;94363.47;;;-2.69;100.00
30110;BME280;14965;50.660;13.226;2024-01-07T00:06:20;94365.72;;;-2.74;100.00
30110;BME280;14965;50.660;13.226;2024-01-07T00:08:46;94366.06;;;-2.80;100.00
30110;BME280;14965;50.660;13.226;2024-01-07T00:11:14;94365.78;;;-2.71;100.00
30110;BME280;14965;50.660;13.226;2024-01-07T00:13:40;94366.56;;;-2.70;100.00
30110;BME280;14965;50.660;13.226;2024-01-07T00:16:06;94369.59;;;-2.76;100.00
30110;BME280;14965;50.660;13.226;2024-01-07T00:18:32;94366.84;;;-2.79;100.00
30110;BME280;14965;50.660;13.226;2024-01-07T00:20:58;94377.97;;;-2.84;100.00
30110;BME280;14965;50.660;13.226;2024-01-07T00:23:24;94373.59;;;-2.92;100.00
30110;BME280;14965;50.660;13.226;2024-01-07T00:25:50;94370.00;;;-3.00;100.00
30110;BME280;14965;50.660;13.226;2024-01-07T00:28:17;94378.47;;;-3.02;100.00
30110;BME280;14965;50.660;13.226;2024-01-07T00:30:43;94373.53;;;-2.96;100.00
30110;BME280;14965;50.660;13.226;2024-01-07T00:33:09;94365.91;;;-2.90;100.00
30110;BME280;14965;50.660;13.226;2024-01-07T00:35:35;94371.66;;;-2.92;100.00
30110;BME280;14965;50.660;13.226;2024-01-07T00:38:01;94380.59;;;-2.88;100.00
30110;BME280;14965;50.660;13.226;2024-01-07T00:40:27;94379.00;;;-2.92;100.00
30110;BME280;14965;50.660;13.226;2024-01-07T00:42:53;94383.09;;;-3.02;100.00
30110;BME280;14965;50.660;13.226;2024-01-07T00:45:21;94386.88;;;-3.07;100.00
30110;BME280;14965;50.660;13.226;2024-01-07T00:47:47;94390.78;;;-3.04;100.00
30110;BME280;14965;50.660;13.226;2024-01-07T00:50:13;94388.50;;;-3.02;100.00
30110;BME280;14965;50.660;13.226;2024-01-07T00:52:40;94386.75;;;-3.14;100.00
30110;BME280;14965;50.660;13.226;2024-01-07T00:55:07;94387.78;;;-3.22;100.00
30110;BME280;14965;50.660;13.226;2024-01-07T00:57:33;94388.09;;;-3.27;100.00
30110;BME280;14965;50.660;13.226;2024-01-07T01:00:05;94395.97;;;-3.18;100.00
30110;BME280;14965;50.660;13.226;2024-01-07T01:02:33;94398.78;;;-3.11;100.00
30110;BME280;14965;50.660;13.226;2024-01-07T01:04:59;94405.38;;;-3.09;100.00
30110;BME280;14965;50.660;13.226;2024-01-07T01:07:25;94402.63;;;-3.12;100.00
30110;BME280;14965;50.660;13.226;2024-01-07T01:09:51;94402.19;;;-3.14;100.00
30110;BME280;14965;50.660;13.226;2024-01-07T01:12:17;94406.75;;;-3.18;100.00
30110;BME280;14965;50.660;13.226;2024-01-07T01:14:43;94403.72;;;-3.40;100.00
30110;BME280;14965;50.660;13.226;2024-01-07T01:17:09;94405.28;;;-3.39;100.00
30110;BME280;14965;50.660;13.226;2024-01-07T01:19:37;94407.69;;;-3.34;100.00
30110;BME280;14965;50.660;13.226;2024-01-07T01:22:03;94408.81;;;-3.35;100.00
30110;BME280;14965;50.660;13.226;2024-01-07T01:24:29;94413.38;;;-3.39;100.00
30110;BME280;14965;50.660;13.226;2024-01-07T01:26:55;94422.22;;;-3.42;100.00
30110;BME280;14965;50.660;13.226;2024-01-07T01:29:21;94427.94;;;-3.43;100.00
30110;BME280;14965;50.660;13.226;2024-01-07T01:31:47;94427.88;;;-3.47;100.00
30110;BME280;14965;50.660;13.226;2024-01-07T01:34:13;94425.19;;;-3.47;100.00
30110;BME280;14965;50.660;13.226;2024-01-07T01:36:40;94428.31;;;-3.45;100.00
30110;BME280;14965;50.660;13.226;2024-01-07T01:39:06;94428.69;;;-3.46;100.00
30110;BME280;14965;50.660;13.226;2024-01-07T01:41:32;94433.34;;;-3.43;100.00
30110;BME280;14965;50.660;13.226;2024-01-07T01:43:59;94422.50;;;-3.47;100.00
30110;BME280;14965;50.660;13.226;2024-01-07T01:46:25;94419.44;;;-3.45;100.00
30110;BME280;14965;50.660;13.226;2024-01-07T01:48:52;94428.97;;;-3.52;100.00
30110;BME280;14965;50.660;13.226;2024-01-07T01:51:19;94425.38;;;-3.59;100.00
30110;BME280;14965;50.660;13.226;2024-01-07T01:53:47;94427.25;;;-3.63;100.00
30110;BME280;14965;50.660;13.226;2024-01-07T01:56:20;94435.34;;;-3.63;100.00
30110;BME280;14965;50.660;13.226;2024-01-07T01:58:46;94435.34;;;-3.63;100.00
30110;BME280;14965;50.660;13.226;2024-01-07T02:01:12;94445.94;;;-3.74;100.00
30110;BME280;14965;50.660;13.226;2024-01-07T02:03:38;94447.19;;;-3.68;100.00
30110;BME280;14965;50.660;13.226;2024-01-07T02:06:05;94444.84;;;-3.69;100.00
30110;BME280;14965;50.660;13.226;2024-01-07T02:08:32;94449.41;;;-3.73;100.00
30110;BME280;14965;50.660;13.226;2024-01-07T02:11:17;94456.34;;;-3.72;100.00
30110;BME280;14965;50.660;13.226;2024-01-07T02:13:44;94458.28;;;-3.73;100.00
30110;BME280;14965;50.660;13.226;2024-01-07T02:16:11;94452.81;;;-3.77;100.00
30110;BME280;14965;50.660;13.226;2024-01-07T02:18:40;94457.34;;;-3.81;100.00
30110;BME280;14965;50.660;13.226;2024-01-07T02:21:07;94461.97;;;-3.81;100.00
30110;BME280;14965;50.660;13.226;2024-01-07T02:23:33;94454.31;;;-3.79;100.00
30110;BME280;14965;50.660;13.226;2024-01-07T02:26:00;94450.25;;;-3.89;100.00
30110;BME280;14965;50.660;13.226;2024-01-07T02:28:26;94451.84;;;-3.88;100.00
30110;BME280;14965;50.660;13.226;2024-01-07T02:30:52;94456.81;;;-3.90;100.00
30110;BME280;14965;50.660;13.226;2024-01-07T02:33:18;94462.94;;;-3.93;100.00
30110;BME280;14965;50.660;13.226;2024-01-07T02:35:44;94458.78;;;-3.87;100.00
30110;BME280;14965;50.660;13.226;2024-01-07T02:38:10;94458.72;;;-3.90;100.00
30110;BME280;14965;50.660;13.226;2024-01-07T02:40:36;94460.56;;;-3.94;100.00
30110;BME280;14965;50.660;13.226;2024-01-07T02:43:04;94461.34;;;-3.94;100.00
30110;BME280;14965;50.660;13.226;2024-01-07T02:45:30;94465.25;;;-3.91;100.00
30110;BME280;14965;50.660;13.226;2024-01-07T02:47:56;94462.84;;;-3.96;100.00
30110;BME280;14965;50.660;13.226;2024-01-07T02:50:21;94477.81;;;-3.99;100.00
30110;BME280;14965;50.660;13.226;2024-01-07T02:52:47;94473.06;;;-4.06;100.00
30110;BME280;14965;50.660;13.226;2024-01-07T02:55:14;94482.50;;;-4.15;100.00
30110;BME280;14965;50.660;13.226;2024-01-07T02:57:40;94487.47;;;-4.17;100.00
30110;BME280;14965;50.660;13.226;2024-01-07T03:00:08;94482.34;;;-4.22;100.00
30110;BME280;14965;50.660;13.226;2024-01-07T03:02:34;94494.72;;;-4.21;100.00
30110;BME280;14965;50.660;13.226;2024-01-07T03:05:00;94490.31;;;-4.30;100.00
30110;BME280;14965;50.660;13.226;2024-01-07T03:07:26;94493.97;;;-4.38;100.00
30110;BME280;14965;50.660;13.226;2024-01-07T03:09:52;94496.66;;;-4.38;100.00
30110;BME280;14965;50.660;13.226;2024-01-07T03:12:18;94484.81;;;-4.33;100.00
30110;BME280;14965;50.660;13.226;2024-01-07T03:14:44;94490.31;;;-4.30;100.00
30110;BME280;14965;50.660;13.226;2024-01-07T03:17:11;94498.03;;;-4.28;100.00
30110;BME280;14965;50.660;13.226;2024-01-07T03:19:37;94502.19;;;-4.31;100.00
30110;BME280;14965;50.660;13.226;2024-01-07T03:22:04;94503.25;;;-4.35;100.00
30110;BME280;14965;50.660;13.226;2024-01-07T03:24:30;94498.50;;;-4.42;100.00
30110;BME280;14965;50.660;13.226;2024-01-07T03:26:56;94499.78;;;-4.36;100.00
30110;BME280;14965;50.660;13.226;2024-01-07T03:29:22;94501.09;;;-4.30;100.00
30110;BME280;14965;50.660;13.226;2024-01-07T03:31:48;94497.63;;;-4.30;100.00
30110;BME280;14965;50.660;13.226;2024-01-07T03:34:15;94507.16;;;-4.33;100.00
30110;BME280;14965;50.660;13.226;2024-01-07T03:36:41;94504.41;;;-4.36;100.00
30110;BME280;14965;50.660;13.226;2024-01-07T03:39:07;94510.16;;;-4.38;100.00
30110;BME280;14965;50.660;13.226;2024-01-07T03:41:33;94510.69;;;-4.48;100.00
30110;BME280;14965;50.660;13.226;2024-01-07T03:43:59;94507.13;;;-4.52;100.00
30110;BME280;14965;50.660;13.226;2024-01-07T03:46:25;94513.66;;;-4.53;100.00
30110;BME280;14965;50.660;13.226;2024-01-07T03:48:51;94507.91;;;-4.52;100.00
30110;BME280;14965;50.660;13.226;2024-01-07T03:51:19;94505.38;;;-4.44;100.00
30110;BME280;14965;50.660;13.226;2024-01-07T03:53:45;94514.97;;;-4.47;100.00
30110;BME280;14965;50.660;13.226;2024-01-07T03:56:11;94515.97;;;-4.52;100.00
30110;BME280;14965;50.660;13.226;2024-01-07T03:58:36;94512.28;;;-4.63;100.00
30110;BME280;14965;50.660;13.226;2024-01-07T04:01:03;94516.13;;;-4.64;100.00
30110;BME280;14965;50.660;13.226;2024-01-07T04:03:29;94518.72;;;-4.67;100.00
30110;BME280;14965;50.660;13.226;2024-01-07T04:05:55;94513.25;;;-4.71;100.00
30110;BME280;14965;50.660;13.226;2024-01-07T04:08:22;94514.91;;;-4.66;100.00
30110;BME280;14965;50.660;13.226;2024-01-07T04:10:49;94516.97;;;-4.60;100.00
30110;BME280;14965;50.660;13.226;2024-01-07T04:13:15;94512.78;;;-4.57;100.00
30110;BME280;14965;50.660;13.226;2024-01-07T04:15:40;94512.69;;;-4.61;100.00
30110;BME280;14965;50.660;13.226;2024-01-07T04:18:07;94519.22;;;-4.62;100.00
30110;BME280;14965;50.660;13.226;2024-01-07T04:20:33;94515.25;;;-4.68;100.00
30110;BME280;14965;50.660;13.226;2024-01-07T04:22:59;94525.22;;;-4.68;100.00
30110;BME280;14965;50.660;13.226;2024-01-07T04:25:26;94526.19;;;-4.77;100.00
30110;BME280;14965;50.660;13.226;2024-01-07T04:27:52;94536.03;;;-4.84;100.00
30110;BME280;14965;50.660;13.226;2024-01-07T04:30:18;94529.06;;;-4.85;100.00
30110;BME280;14965;50.660;13.226;2024-01-07T04:32:44;94532.97;;;-4.83;100.00
30110;BME280;14965;50.660;13.226;2024-01-07T04:35:10;94539.94;;;-4.82;100.00
30110;BME280;14965;50.660;13.226;2024-01-07T04:37:37;94538.09;;;-4.78;100.00
30110;BME280;14965;50.660;13.226;2024-01-07T04:40:03;94541.50;;;-4.81;100.00
30110;BME280;14965;50.660;13.226;2024-01-07T04:42:31;94542.34;;;-4.77;100.00
30110;BME280;14965;50.660;13.226;2024-01-07T04:44:57;94541.84;;;-4.82;100.00
30110;BME280;14965;50.660;13.226;2024-01-07T04:47:27;94545.16;;;-4.89;100.00
30110;BME280;14965;50.660;13.226;2024-01-07T04:49:54;94545.06;;;-4.92;100.00
30110;BME280;14965;50.660;13.226;2024-01-07T04:52:21;94551.31;;;-4.88;100.00
30110;BME280;14965;50.660;13.226;2024-01-07T04:54:47;94560.00;;;-4.95;100.00
30110;BME280;14965;50.660;13.226;2024-01-07T04:57:13;94540.97;;;-5.02;100.00
30110;BME280;14965;50.660;13.226;2024-01-07T04:59:40;94547.94;;;-5.01;100.00
30110;BME280;14965;50.660;13.226;2024-01-07T05:02:06;94551.06;;;-4.99;100.00
30110;BME280;14965;50.660;13.226;2024-01-07T05:04:32;94557.13;;;-5.02;100.00
30110;BME280;14965;50.660;13.226;2024-01-07T05:06:58;94563.66;;;-5.03;100.00
30110;BME280;14965;50.660;13.226;2024-01-07T05:09:24;94563.31;;;-5.02;100.00
30110;BME280;14965;50.660;13.226;2024-01-07T05:11:50;94572.19;;;-5.01;100.00
30110;BME280;14965;50.660;13.226;2024-01-07T05:14:16;94562.19;;;-5.01;100.00
30110;BME280;14965;50.660;13.226;2024-01-07T05:16:43;94566.84;;;-4.97;100.00
30110;BME280;14965;50.660;13.226;2024-01-07T05:19:09;94564.97;;;-4.97;100.00
30110;BME280;14965;50.660;13.226;2024-01-07T05:21:35;94575.28;;;-4.99;100.00
30110;BME280;14965;50.660;13.226;2024-01-07T05:24:01;94571.03;;;-5.00;100.00
30110;BME280;14965;50.660;13.226;2024-01-07T05:26:26;94572.75;;;-5.08;100.00
30110;BME280;14965;50.660;13.226;2024-01-07T05:28:52;94575.63;;;-5.16;100.00
30110;BME280;14965;50.660;13.226;2024-01-07T05:31:19;94578.56;;;-5.21;100.00
30110;BME280;14965;50.660;13.226;2024-01-07T05:33:46;94585.09;;;-5.22;100.00
30110;BME280;14965;50.660;13.226;2024-01-07T05:36:13;94585.09;;;-5.22;100.00
30110;BME280;14965;50.660;13.226;2024-01-07T05:38:41;94585.94;;;-5.18;100.00
30110;BME280;14965;50.660;13.226;2024-01-07T05:41:07;94594.00;;;-5.18;100.00
30110;BME280;14965;50.660;13.226;2024-01-07T05:43:33;94584.84;;;-5.17;100.00
30110;BME280;14965;50.660;13.226;2024-01-07T05:45:59;94585.78;;;-5.26;100.00
30110;BME280;14965;50.660;13.226;2024-01-07T05:48:24;94596.88;;;-5.27;100.00
30110;BME280;14965;50.660;13.226;2024-01-07T05:50:52;94598.69;;;-5.31;100.00
30110;BME280;14965;50.660;13.226;2024-01-07T05:53:18;94596.09;;;-5.28;100.00
30110;BME280;14965;50.660;13.226;2024-01-07T05:55:44;94599.47;;;-5.31;100.00
30110;BME280;14965;50.660;13.226;2024-01-07T05:58:10;94607.78;;;-5.36;100.00
30110;BME280;14965;50.660;13.226;2024-01-07T06:00:36;94605.97;;;-5.32;100.00
30110;BME280;14965;50.660;13.226;2024-01-07T06:03:02;94620.91;;;-5.34;100.00
30110;BME280;14965;50.660;13.226;2024-01-07T06:05:29;94611.59;;;-5.37;100.00
30110;BME280;14965;50.660;13.226;2024-01-07T06:07:56;94614.31;;;-5.37;100.00
30110;BME280;14965;50.660;13.226;2024-01-07T06:10:22;94617.56;;;-5.43;100.00
30110;BME280;14965;50.660;13.226;2024-01-07T06:12:48;94621.75;;;-5.46;100.00
30110;BME280;14965;50.660;13.226;2024-01-07T06:15:14;94618.81;;;-5.41;100.00
30110;BME280;14965;50.660;13.226;2024-01-07T06:17:40;94634.41;;;-5.46;100.00
30110;BME280;14965;50.660;13.226;2024-01-07T06:20:07;94625.09;;;-5.49;100.00
30110;BME280;14965;50.660;13.226;2024-01-07T06:22:33;94626.25;;;-5.50;100.00
30110;BME280;14965;50.660;13.226;2024-01-07T06:25:00;94629.72;;;-5.49;100.00
30110;BME280;14965;50.660;13.226;2024-01-07T06:27:26;94632.50;;;-5.46;100.00
30110;BME280;14965;50.660;13.226;2024-01-07T06:29:52;94636.09;;;-5.42;100.00
30110;BME280;14965;50.660;13.226;2024-01-07T06:32:18;94648.75;;;-5.42;100.00
30110;BME280;14965;50.660;13.226;2024-01-07T06:34:43;94649.06;;;-5.44;100.00
30110;BME280;14965;50.660;13.226;2024-01-07T06:37:09;94643.94;;;-5.49;100.00
30110;BME280;14965;50.660;13.226;2024-01-07T06:39:35;94653.25;;;-5.46;100.00
30110;BME280;14965;50.660;13.226;2024-01-07T06:42:03;94664.69;;;-5.49;100.00
30110;BME280;14965;50.660;13.226;2024-01-07T06:44:29;94658.31;;;-5.57;100.00
30110;BME280;14965;50.660;13.226;2024-01-07T06:46:55;94658.78;;;-5.55;100.00
30110;BME280;14965;50.660;13.226;2024-01-07T06:49:21;94659.56;;;-5.55;100.00
30110;BME280;14965;50.660;13.226;2024-01-07T06:51:47;94658.06;;;-5.52;100.00
30110;BME280;14965;50.660;13.226;2024-01-07T06:54:13;94662.34;;;-5.51;100.00
30110;BME280;14965;50.660;13.226;2024-01-07T06:56:39;94666.16;;;-5.52;100.00
30110;BME280;14965;50.660;13.226;2024-01-07T06:59:06;94678.16;;;-5.49;100.00
30110;BME280;14965;50.660;13.226;2024-01-07T07:01:32;94669.09;;;-5.57;100.00
30110;BME280;14965;50.660;13.226;2024-01-07T07:03:58;94673.56;;;-5.61;100.00
30110;BME280;14965;50.660;13.226;2024-01-07T07:06:24;94675.59;;;-5.58;100.00
30110;BME280;14965;50.660;13.226;2024-01-07T07:08:50;94674.72;;;-5.62;100.00
30110;BME280;14965;50.660;13.226;2024-01-07T07:11:16;94676.50;;;-5.66;100.00
30110;BME280;14965;50.660;13.226;2024-01-07T07:13:42;94683.44;;;-5.65;100.00
30110;BME280;14965;50.660;13.226;2024-01-07T07:16:09;94695.56;;;-5.71;100.00
30110;BME280;14965;50.660;13.226;2024-01-07T07:18:35;94683.47;;;-5.78;100.00
30110;BME280;14965;50.660;13.226;2024-01-07T07:21:01;94689.63;;;-5.77;100.00
30110;BME280;14965;50.660;13.226;2024-01-07T07:23:27;94690.75;;;-5.78;100.00
30110;BME280;14965;50.660;13.226;2024-01-07T07:25:53;94697.63;;;-5.81;100.00
30110;BME280;14965;50.660;13.226;2024-01-07T07:28:18;94694.47;;;-5.83;100.00
30110;BME280;14965;50.660;13.226;2024-01-07T07:30:44;94698.59;;;-5.85;100.00
30110;BME280;14965;50.660;13.226;2024-01-07T07:33:12;94698.50;;;-5.89;100.00
30110;BME280;14965;50.660;13.226;2024-01-07T07:35:38;94712.84;;;-5.85;100.00
30110;BME280;14965;50.660;13.226;2024-01-07T07:38:04;94708.81;;;-5.79;100.00
30110;BME280;14965;50.660;13.226;2024-01-07T07:40:30;94711.06;;;-5.81;100.00
30110;BME280;14965;50.660;13.226;2024-01-07T07:42:55;94720.56;;;-5.83;100.00
30110;BME280;14965;50.660;13.226;2024-01-07T07:45:21;94722.91;;;-5.82;100.00
30110;BME280;14965;50.660;13.226;2024-01-07T07:47:47;94720.91;;;-5.85;100.00
30110;BME280;14965;50.660;13.226;2024-01-07T07:50:15;94728.19;;;-5.85;100.00
30110;BME280;14965;50.660;13.226;2024-01-07T07:52:41;94733.34;;;-5.80;100.00
30110;BME280;14965;50.660;13.226;2024-01-07T07:55:08;94739.75;;;-5.85;100.00
30110;BME280;14965;50.660;13.226;2024-01-07T07:57:34;94731.22;;;-5.87;100.00
30110;BME280;14965;50.660;13.226;2024-01-07T08:00:00;94731.44;;;-5.80;100.00
30110;BME280;14965;50.660;13.226;2024-01-07T08:02:26;94742.31;;;-5.76;100.00
30110;BME280;14965;50.660;13.226;2024-01-07T08:04:52;94739.28;;;-5.74;100.00
30110;BME280;14965;50.660;13.226;2024-01-07T08:07:19;94748.00;;;-5.78;100.00
30110;BME280;14965;50.660;13.226;2024-01-07T08:09:45;94757.75;;;-5.73;100.00
30110;BME280;14965;50.660;13.226;2024-01-07T08:12:11;94749.03;;;-5.82;100.00
30110;BME280;14965;50.660;13.226;2024-01-07T08:14:37;94752.97;;;-5.80;100.00
30110;BME280;14965;50.660;13.226;2024-01-07T08:17:03;94764.16;;;-5.78;100.00
30110;BME280;14965;50.660;13.226;2024-01-07T08:19:29;94760.25;;;-5.80;100.00
30110;BME280;14965;50.660;13.226;2024-01-07T08:21:55;94768.44;;;-5.77;100.00
30110;BME280;14965;50.660;13.226;2024-01-07T08:24:22;94763.06;;;-5.77;100.00
30110;BME280;14965;50.660;13.226;2024-01-07T08:26:48;94758.34;;;-5.80;100.00
30110;BME280;14965;50.660;13.226;2024-01-07T08:29:13;94758.78;;;-5.78;100.00
30110;BME280;14965;50.660;13.226;2024-01-07T08:31:40;94771.66;;;-5.71;100.00
30110;BME280;14965;50.660;13.226;2024-01-07T08:34:06;94768.09;;;-5.75;100.00
30110;BME280;14965;50.660;13.226;2024-01-07T08:36:32;94768.75;;;-5.78;100.00
30110;BME280;14965;50.660;13.226;2024-01-07T08:38:58;94770.78;;;-5.75;100.00
30110;BME280;14965;50.660;13.226;2024-01-07T08:41:26;94772.03;;;-5.85;100.00
30110;BME280;14965;50.660;13.226;2024-01-07T08:43:52;94784.09;;;-5.91;100.00
30110;BME280;14965;50.660;13.226;2024-01-07T08:46:21;94772.03;;;-5.97;100.00
30110;BME280;14965;50.660;13.226;2024-01-07T08:48:46;94786.16;;;-6.00;100.00
30110;BME280;14965;50.660;13.226;2024-01-07T08:51:12;94789.38;;;-6.07;100.00
30110;BME280;14965;50.660;13.226;2024-01-07T08:53:38;94814.56;;;-6.11;100.00
30110;BME280;14965;50.660;13.226;2024-01-07T08:56:05;94810.53;;;-6.17;100.00
30110;BME280;14965;50.660;13.226;2024-01-07T08:58:32;94814.91;;;-6.13;100.00
30110;BME280;14965;50.660;13.226;2024-01-07T09:00:58;94817.03;;;-6.06;100.00
30110;BME280;14965;50.660;13.226;2024-01-07T09:03:24;94813.16;;;-5.96;100.00
30110;BME280;14965;50.660;13.226;2024-01-07T09:05:50;94816.97;;;-5.97;100.00
30110;BME280;14965;50.660;13.226;2024-01-07T09:08:16;94815.72;;;-6.00;100.00
30110;BME280;14965;50.660;13.226;2024-01-07T09:10:43;94814.03;;;-6.05;100.00
30110;BME280;14965;50.660;13.226;2024-01-07T09:13:09;94820.56;;;-5.93;100.00
30110;BME280;14965;50.660;13.226;2024-01-07T09:15:36;94822.13;;;-5.92;100.00
30110;BME280;14965;50.660;13.226;2024-01-07T09:18:03;94823.13;;;-5.97;100.00
30110;BME280;14965;50.660;13.226;2024-01-07T09:20:29;94825.47;;;-5.95;100.00
30110;BME280;14965;50.660;13.226;2024-01-07T09:22:55;94830.97;;;-5.92;100.00
30110;BME280;14965;50.660;13.226;2024-01-07T09:25:21;94832.88;;;-5.92;100.00
30110;BME280;14965;50.660;13.226;2024-01-07T09:27:47;94835.88;;;-5.94;100.00
30110;BME280;14965;50.660;13.226;2024-01-07T09:30:13;94840.81;;;-5.96;100.00
30110;BME280;14965;50.660;13.226;2024-01-07T09:32:41;94841.25;;;-5.94;100.00
30110;BME280;14965;50.660;13.226;2024-01-07T09:35:08;94826.59;;;-5.96;100.00
30110;BME280;14965;50.660;13.226;2024-01-07T09:37:34;94837.00;;;-5.95;100.00
30110;BME280;14965;50.660;13.226;2024-01-07T09:40:01;94836.75;;;-6.02;100.00
30110;BME280;14965;50.660;13.226;2024-01-07T09:42:28;94830.59;;;-6.03;100.00
30110;BME280;14965;50.660;13.226;2024-01-07T09:44:55;94838.34;;;-6.01;100.00
30110;BME280;14965;50.660;13.226;2024-01-07T09:47:21;94832.75;;;-5.96;100.00
30110;BME280;14965;50.660;13.226;2024-01-07T09:49:49;94830.72;;;-5.87;100.00
30110;BME280;14965;50.660;13.226;2024-01-07T09:52:15;94828.94;;;-5.83;100.00
30110;BME280;14965;50.660;13.226;2024-01-07T09:54:41;94832.28;;;-5.73;100.00
30110;BME280;14965;50.660;13.226;2024-01-07T09:57:08;94836.34;;;-5.80;100.00
30110;BME280;14965;50.660;13.226;2024-01-07T09:59:35;94839.03;;;-5.80;100.00
30110;BME280;14965;50.660;13.226;2024-01-07T10:02:02;94830.72;;;-5.87;100.00
30110;BME280;14965;50.660;13.226;2024-01-07T10:04:29;94847.09;;;-5.92;100.00
30110;BME280;14965;50.660;13.226;2024-01-07T10:06:57;94843.84;;;-5.97;100.00
30110;BME280;14965;50.660;13.226;2024-01-07T10:09:23;94853.59;;;-5.93;100.00
30110;BME280;14965;50.660;13.226;2024-01-07T10:11:50;94846.97;;;-5.95;100.00
30110;BME280;14965;50.660;13.226;2024-01-07T10:14:16;94844.50;;;-5.88;100.00
30110;BME280;14965;50.660;13.226;2024-01-07T10:16:42;94853.91;;;-5.94;100.00
30110;BME280;14965;50.660;13.226;2024-01-07T10:19:08;94852.59;;;-6.00;100.00
30110;BME280;14965;50.660;13.226;2024-01-07T10:21:34;94858.28;;;-6.02;100.00
30110;BME280;14965;50.660;13.226;2024-01-07T10:24:09;94853.25;;;-6.04;100.00
30110;BME280;14965;50.660;13.226;2024-01-07T10:26:37;94855.03;;;-5.95;100.00
30110;BME280;14965;50.660;13.226;2024-01-07T10:29:03;94855.56;;;-5.90;100.00
30110;BME280;14965;50.660;13.226;2024-01-07T10:31:29;94852.69;;;-5.97;100.00
30110;BME280;14965;50.660;13.226;2024-01-07T10:33:56;94853.22;;;-5.91;100.00
30110;BME280;14965;50.660;13.226;2024-01-07T10:36:22;94859.00;;;-5.93;100.00
30110;BME280;14965;50.660;13.226;2024-01-07T10:38:50;94861.44;;;-6.00;100.00
30110;BME280;14965;50.660;13.226;2024-01-07T10:41:19;94855.16;;;-5.92;100.00
30110;BME280;14965;50.660;13.226;2024-01-07T10:43:47;94874.53;;;-5.86;100.00
30110;BME280;14965;50.660;13.226;2024-01-07T10:46:14;94867.47;;;-6.03;100.00
30110;BME280;14965;50.660;13.226;2024-01-07T10:48:53;94864.66;;;-6.07;100.00
30110;BME280;14965;50.660;13.226;2024-01-07T10:51:20;94863.75;;;-6.11;100.00
30110;BME280;14965;50.660;13.226;2024-01-07T10:53:52;94865.78;;;-6.08;100.00
30110;BME280;14965;50.660;13.226;2024-01-07T10:56:23;94876.53;;;-6.08;100.00
30110;BME280;14965;50.660;13.226;2024-01-07T10:58:52;94868.38;;;-5.99;100.00
30110;BME280;14965;50.660;13.226;2024-01-07T11:01:19;94864.34;;;-6.05;100.00
30110;BME280;14965;50.660;13.226;2024-01-07T11:03:56;94871.81;;;-6.11;100.00
30110;BME280;14965;50.660;13.226;2024-01-07T11:06:33;94873.84;;;-6.08;100.00
30110;BME280;14965;50.660;13.226;2024-01-07T11:09:06;94869.94;;;-6.10;100.00
30110;BME280;14965;50.660;13.226;2024-01-07T11:11:39;94876.19;;;-6.06;100.00
30110;BME280;14965;50.660;13.226;2024-01-07T11:14:13;94870.16;;;-6.03;100.00
30110;BME280;14965;50.660;13.226;2024-01-07T11:16:59;94873.06;;;-6.08;100.00
30110;BME280;14965;50.660;13.226;2024-01-07T11:19:26;94865.34;;;-6.10;100.00
30110;BME280;14965;50.660;13.226;2024-01-07T11:21:52;94871.50;;;-6.09;100.00
30110;BME280;14965;50.660;13.226;2024-01-07T11:24:39;94871.38;;;-6.13;100.00
30110;BME280;14965;50.660;13.226;2024-01-07T11:27:08;94868.47;;;-6.08;100.00
30110;BME280;14965;50.660;13.226;2024-01-07T11:29:35;94873.50;;;-6.06;100.00
30110;BME280;14965;50.660;13.226;2024-01-07T11:32:01;94882.25;;;-6.09;100.00
30110;BME280;14965;50.660;13.226;2024-01-07T11:34:40;94878.19;;;-6.15;100.00
30110;BME280;14965;50.660;13.226;2024-01-07T11:37:10;94881.31;;;-6.25;100.00
30110;BME280;14965;50.660;13.226;2024-01-07T11:39:36;94885.88;;;-6.26;100.00
30110;BME280;14965;50.660;13.226;2024-01-07T11:42:03;94881.09;;;-6.20;100.00
30110;BME280;14965;50.660;13.226;2024-01-07T11:44:34;94882.22;;;-6.21;100.00
30110;BME280;14965;50.660;13.226;2024-01-07T11:47:01;94893.31;;;-6.11;100.00
30110;BME280;14965;50.660;13.226;2024-01-07T11:49:27;94894.81;;;-6.01;100.00
30110;BME280;14965;50.660;13.226;2024-01-07T11:51:52;94889.63;;;-6.06;100.00
30110;BME280;14965;50.660;13.226;2024-01-07T11:54:19;94885.16;;;-6.02;100.00
30110;BME280;14965;50.660;13.226;2024-01-07T11:56:44;94892.44;;;-5.90;100.00
30110;BME280;14965;50.660;13.226;2024-01-07T11:59:10;94888.09;;;-5.95;100.00
30110;BME280;14965;50.660;13.226;2024-01-07T12:01:38;94893.91;;;-6.05;100.00
30110;BME280;14965;50.660;13.226;2024-01-07T12:04:04;94887.84;;;-6.14;100.00
30110;BME280;14965;50.660;13.226;2024-01-07T12:06:30;94900.31;;;-6.31;100.00
30110;BME280;14965;50.660;13.226;2024-01-07T12:08:56;94902.53;;;-6.33;100.00
30110;BME280;14965;50.660;13.226;2024-01-07T12:11:22;94900.91;;;-6.46;100.00
30110;BME280;14965;50.660;13.226;2024-01-07T12:13:48;94902.19;;;-6.43;100.00
30110;BME280;14965;50.660;13.226;2024-01-07T12:16:15;94901.44;;;-6.53;100.00
30110;BME280;14965;50.660;13.226;2024-01-07T12:18:42;94899.53;;;-6.52;100.00
30110;BME280;14965;50.660;13.226;2024-01-07T12:21:08;94907.72;;;-6.48;100.00
30110;BME280;14965;50.660;13.226;2024-01-07T12:23:35;94896.97;;;-6.48;100.00
30110;BME280;14965;50.660;13.226;2024-01-07T12:26:08;94906.94;;;-6.49;100.00
30110;BME280;14965;50.660;13.226;2024-01-07T12:28:34;94908.34;;;-6.43;100.00
30110;BME280;14965;50.660;13.226;2024-01-07T12:31:00;94912.16;;;-6.32;100.00
30110;BME280;14965;50.660;13.226;2024-01-07T12:33:26;94918.66;;;-6.33;100.00
30110;BME280;14965;50.660;13.226;2024-01-07T12:35:54;94924.81;;;-6.32;100.00
30110;BME280;14965;50.660;13.226;2024-01-07T12:38:24;94919.53;;;-6.41;100.00